createdAt,value
2019-03-22T00:01:55.851Z,23.90
2019-03-22T00:04:28.828Z,24.00
2019-03-22T00:07:02.600Z,24.10
2019-03-22T00:09:35.542Z,24.10
2019-03-22T00:12:08.736Z,24.20
2019-03-22T00:14:41.941Z,24.40
2019-03-22T00:17:15.201Z,24.40
2019-03-22T00:19:48.249Z,24.50
2019-03-22T00:22:22.927Z,24.60
2019-03-22T00:24:55.822Z,24.80
2019-03-22T00:27:30.226Z,24.80
2019-03-22T00:30:04.299Z,24.80
2019-03-22T00:32:37.591Z,24.70
2019-03-22T00:35:10.779Z,24.60
2019-03-22T00:37:43.937Z,24.60
2019-03-22T00:40:17.878Z,24.50
2019-03-22T00:42:51.411Z,24.50
2019-03-22T00:45:27.552Z,24.30
2019-03-22T00:48:00.819Z,24.30
2019-03-22T00:50:34.153Z,24.40
2019-03-22T00:53:07.695Z,24.60
2019-03-22T00:55:42.832Z,24.80
2019-03-22T00:58:15.619Z,25.00
2019-03-22T01:00:49.023Z,25.10
2019-03-22T01:03:22.481Z,25.20
2019-03-22T01:05:55.527Z,25.30
2019-03-22T01:08:29.094Z,25.30
2019-03-22T01:11:02.296Z,25.30
2019-03-22T01:13:36.063Z,25.10
2019-03-22T01:16:09.001Z,24.90
2019-03-22T01:18:42.640Z,24.90
2019-03-22T01:21:15.474Z,24.90
2019-03-22T01:23:48.845Z,25.00
2019-03-22T01:26:21.974Z,25.10
2019-03-22T01:28:55.429Z,25.40
2019-03-22T01:31:28.737Z,25.50
2019-03-22T01:34:02.255Z,25.60
2019-03-22T01:36:35.590Z,25.60
2019-03-22T01:39:09.676Z,25.50
2019-03-22T01:41:45.873Z,25.40
2019-03-22T01:44:19.787Z,25.20
2019-03-22T01:46:52.571Z,25.10
2019-03-22T01:49:26.315Z,25.30
2019-03-22T01:51:59.507Z,25.60
2019-03-22T01:54:33.059Z,25.80
2019-03-22T01:57:06.555Z,25.80
2019-03-22T01:59:40.514Z,25.90
2019-03-22T02:02:13.792Z,26.10
2019-03-22T02:04:47.169Z,26.10
2019-03-22T02:07:20.265Z,26.10
2019-03-22T02:09:54.208Z,26.20
2019-03-22T02:12:27.140Z,26.20
2019-03-22T02:15:00.862Z,26.00
2019-03-22T02:17:34.124Z,25.90
2019-03-22T02:20:08.853Z,26.10
2019-03-22T02:22:41.790Z,26.20
2019-03-22T02:25:15.165Z,26.30
2019-03-22T02:27:48.401Z,26.10
2019-03-22T02:30:24.931Z,25.80
2019-03-22T02:32:58.031Z,25.80
2019-03-22T02:35:31.309Z,25.50
2019-03-22T02:38:04.129Z,25.40
2019-03-22T02:40:37.515Z,25.40
2019-03-22T02:43:10.638Z,25.30
2019-03-22T02:45:44.132Z,25.40
2019-03-22T02:48:17.214Z,25.60
2019-03-22T02:50:50.759Z,25.40
2019-03-22T02:53:24.027Z,25.40
2019-03-22T02:55:57.293Z,25.40
2019-03-22T02:58:30.275Z,25.40
2019-03-22T03:01:03.713Z,25.40
2019-03-22T03:03:36.784Z,25.30
2019-03-22T03:06:10.173Z,25.20
2019-03-22T03:08:43.054Z,25.10
2019-03-22T03:11:16.312Z,25.20
2019-03-22T03:13:49.354Z,25.10
2019-03-22T03:16:22.724Z,25.10
2019-03-22T03:18:55.680Z,25.20
2019-03-22T03:21:29.051Z,25.20
2019-03-22T03:24:02.038Z,25.20
2019-03-22T03:26:35.111Z,25.30
2019-03-22T03:29:08.628Z,25.40
2019-03-22T03:31:42.486Z,25.40
2019-03-22T03:34:15.362Z,25.40
2019-03-22T03:36:49.275Z,25.40
2019-03-22T03:39:22.572Z,25.40
2019-03-22T03:41:55.720Z,25.30
2019-03-22T03:44:28.771Z,25.20
2019-03-22T03:47:21.544Z,25.30
2019-03-22T03:49:54.591Z,25.30
2019-03-22T03:52:27.985Z,25.40
2019-03-22T03:55:00.804Z,25.40
2019-03-22T03:57:34.133Z,25.40
2019-03-22T04:00:07.951Z,25.40
2019-03-22T04:02:41.243Z,25.40
2019-03-22T04:05:14.713Z,25.40
2019-03-22T04:07:48.336Z,25.50
2019-03-22T04:10:21.351Z,25.60
2019-03-22T04:12:54.819Z,25.70
2019-03-22T04:15:28.201Z,25.70
2019-03-22T04:18:01.436Z,25.70
2019-03-22T04:20:38.643Z,25.60
2019-03-22T04:23:12.284Z,25.60
2019-03-22T04:25:45.272Z,25.50
2019-03-22T04:28:21.868Z,25.60
2019-03-22T04:30:54.810Z,25.50
2019-03-22T04:33:28.307Z,25.50
2019-03-22T04:36:01.386Z,25.60
2019-03-22T04:38:38.024Z,25.70
2019-03-22T04:41:10.933Z,25.80
2019-03-22T04:43:44.927Z,25.90
2019-03-22T04:46:21.465Z,25.70
2019-03-22T04:48:54.690Z,25.80
2019-03-22T04:51:27.763Z,25.60
2019-03-22T04:54:02.804Z,25.50
2019-03-22T04:56:35.856Z,25.40
2019-03-22T04:59:18.551Z,25.30
2019-03-22T05:01:46.039Z,25.30
2019-03-22T05:04:18.394Z,25.20
2019-03-22T05:06:51.426Z,25.10
2019-03-22T05:09:27.812Z,25.10
2019-03-22T05:12:04.312Z,25.00
2019-03-22T05:14:38.055Z,25.00
2019-03-22T05:17:11.088Z,24.90
2019-03-22T05:19:45.348Z,24.90
2019-03-22T05:22:18.462Z,24.90
2019-03-22T05:24:53.295Z,24.90
2019-03-22T05:27:26.578Z,24.90
2019-03-22T05:30:00.657Z,24.90
2019-03-22T05:32:33.655Z,24.80
2019-03-22T05:35:07.483Z,24.80
2019-03-22T05:37:40.459Z,24.80
2019-03-22T05:40:14.087Z,24.70
2019-03-22T05:42:47.179Z,24.80
2019-03-22T05:45:39.144Z,24.80
2019-03-22T05:48:11.998Z,24.80
2019-03-22T05:50:45.958Z,24.80
2019-03-22T05:53:18.999Z,24.90
2019-03-22T05:55:52.464Z,24.80
2019-03-22T05:58:25.742Z,24.80
2019-03-22T06:00:59.204Z,24.80
2019-03-22T06:03:32.047Z,24.80
2019-03-22T06:06:05.336Z,24.70
2019-03-22T06:08:38.488Z,24.80
2019-03-22T06:11:11.819Z,24.70
2019-03-22T06:13:44.707Z,24.70
2019-03-22T06:16:18.286Z,24.70
2019-03-22T06:18:51.645Z,24.60
2019-03-22T06:21:25.249Z,24.60
2019-03-22T06:23:58.527Z,24.60
2019-03-22T06:26:31.716Z,24.60
2019-03-22T06:29:04.853Z,24.50
2019-03-22T06:31:39.553Z,24.50
2019-03-22T06:34:12.640Z,24.40
2019-03-22T06:36:46.037Z,24.40
2019-03-22T06:39:19.046Z,24.30
2019-03-22T06:41:52.362Z,24.30
2019-03-22T06:44:25.672Z,24.30
2019-03-22T06:46:59.565Z,24.30
2019-03-22T06:49:32.546Z,24.20
2019-03-22T06:52:05.852Z,24.20
2019-03-22T06:54:38.913Z,24.10
2019-03-22T06:57:12.712Z,24.10
2019-03-22T06:59:45.657Z,24.10
2019-03-22T07:02:19.256Z,24.00
2019-03-22T07:04:52.648Z,24.00
2019-03-22T07:07:26.532Z,24.00
2019-03-22T07:09:59.571Z,23.90
2019-03-22T07:12:33.097Z,23.90
2019-03-22T07:15:06.610Z,23.90
2019-03-22T07:17:40.567Z,23.80
2019-03-22T07:20:13.701Z,23.90
2019-03-22T07:22:47.147Z,23.80
2019-03-22T07:25:20.408Z,23.80
2019-03-22T07:27:53.616Z,23.80
2019-03-22T07:30:27.339Z,23.80
2019-03-22T07:33:00.572Z,23.70
2019-03-22T07:35:34.015Z,23.70
2019-03-22T07:38:07.405Z,23.70
2019-03-22T07:40:40.315Z,23.70
2019-03-22T07:43:13.944Z,23.70
2019-03-22T07:45:46.919Z,23.60
2019-03-22T07:48:21.024Z,23.60
2019-03-22T07:50:54.018Z,23.50
2019-03-22T07:53:27.150Z,23.60
2019-03-22T07:56:00.576Z,23.50
2019-03-22T07:58:33.726Z,23.50
2019-03-22T08:01:06.977Z,23.50
2019-03-22T08:03:40.412Z,23.50
2019-03-22T08:06:13.574Z,23.50
2019-03-22T08:08:47.054Z,23.50
2019-03-22T08:11:20.694Z,23.50
2019-03-22T08:13:54.155Z,23.50
2019-03-22T08:16:27.688Z,23.50
2019-03-22T08:19:01.785Z,23.40
2019-03-22T08:21:34.992Z,23.40
2019-03-22T08:24:08.455Z,23.40
2019-03-22T08:26:41.892Z,23.50
2019-03-22T08:29:15.232Z,23.40
2019-03-22T08:31:48.307Z,23.40
2019-03-22T08:34:22.081Z,23.40
2019-03-22T08:36:55.401Z,23.40
2019-03-22T08:39:28.927Z,23.40
2019-03-22T08:42:02.809Z,23.40
2019-03-22T08:44:37.774Z,23.40
2019-03-22T08:47:10.581Z,23.30
2019-03-22T08:49:43.926Z,23.30
2019-03-22T08:52:17.216Z,23.10
2019-03-22T08:54:51.217Z,23.00
2019-03-22T08:57:27.702Z,22.90
2019-03-22T09:00:01.750Z,22.90
2019-03-22T09:02:35.565Z,22.70
2019-03-22T09:05:13.619Z,22.70
2019-03-22T09:07:47.919Z,22.70
2019-03-22T09:10:24.761Z,22.70
2019-03-22T09:12:57.908Z,22.70
2019-03-22T09:15:40.634Z,22.60
2019-03-22T09:18:06.989Z,22.60
2019-03-22T09:20:40.525Z,22.60
2019-03-22T09:23:13.607Z,22.60
2019-03-22T09:25:49.397Z,22.50
2019-03-22T09:28:41.342Z,22.50
2019-03-22T09:31:15.133Z,22.40
2019-03-22T09:33:48.383Z,22.40
2019-03-22T09:36:23.933Z,22.40
2019-03-22T09:38:57.597Z,22.40
2019-03-22T09:41:31.016Z,22.40
2019-03-22T09:44:04.717Z,22.40
2019-03-22T09:46:37.927Z,22.40
2019-03-22T09:49:11.264Z,22.40
2019-03-22T09:51:44.722Z,22.40
2019-03-22T09:54:18.364Z,22.50
2019-03-22T09:56:51.837Z,22.40
2019-03-22T09:59:25.042Z,22.40
2019-03-22T10:01:59.073Z,22.40
2019-03-22T10:04:32.769Z,22.40
2019-03-22T10:07:06.353Z,22.40
2019-03-22T10:09:39.554Z,22.40
2019-03-22T10:12:13.558Z,22.50
2019-03-22T10:14:50.688Z,22.50
2019-03-22T10:17:24.269Z,22.40
2019-03-22T10:19:57.266Z,22.40
2019-03-22T10:22:30.620Z,22.40
2019-03-22T10:25:03.536Z,22.50
2019-03-22T10:27:39.371Z,22.50
2019-03-22T10:30:14.027Z,22.50
2019-03-22T10:32:55.731Z,22.40
2019-03-22T10:35:26.365Z,22.40
2019-03-22T10:38:01.028Z,22.30
2019-03-22T10:40:31.944Z,22.30
2019-03-22T10:43:05.268Z,22.20
2019-03-22T10:45:38.237Z,22.20
2019-03-22T10:48:11.970Z,22.20
2019-03-22T10:50:45.165Z,22.10
2019-03-22T10:53:18.705Z,22.10
2019-03-22T10:55:53.435Z,22.10
2019-03-22T10:58:26.399Z,22.00
2019-03-22T11:00:59.451Z,21.90
2019-03-22T11:03:32.800Z,21.90
2019-03-22T11:06:07.091Z,21.80
2019-03-22T11:08:40.933Z,21.80
2019-03-22T11:11:13.965Z,21.70
2019-03-22T11:13:48.346Z,21.70
2019-03-22T11:16:21.114Z,21.70
2019-03-22T11:18:57.499Z,21.60
2019-03-22T11:21:30.735Z,21.60
2019-03-22T11:24:05.032Z,21.60
2019-03-22T11:26:38.004Z,21.60
2019-03-22T11:29:11.909Z,21.60
2019-03-22T11:31:44.825Z,21.60
2019-03-22T11:34:18.381Z,21.50
2019-03-22T11:36:51.602Z,21.50
2019-03-22T11:39:24.901Z,21.50
2019-03-22T11:41:59.663Z,21.50
2019-03-22T11:44:33.414Z,21.40
2019-03-22T11:47:08.026Z,21.40
2019-03-22T11:49:41.841Z,21.40
2019-03-22T11:52:18.511Z,21.40
2019-03-22T11:54:52.492Z,21.40
2019-03-22T11:57:25.715Z,21.40
2019-03-22T11:59:59.079Z,21.40
2019-03-22T12:02:32.312Z,21.40
2019-03-22T12:05:05.746Z,21.40
2019-03-22T12:07:43.640Z,21.40
2019-03-22T12:10:18.458Z,21.40
2019-03-22T12:12:51.438Z,21.40
2019-03-22T12:15:25.286Z,21.30
2019-03-22T12:17:58.185Z,21.30
2019-03-22T12:20:31.439Z,21.30
2019-03-22T12:23:04.426Z,21.30
2019-03-22T12:25:38.338Z,21.30
2019-03-22T12:28:11.227Z,21.30
2019-03-22T12:30:45.265Z,21.30
2019-03-22T12:33:19.795Z,21.30
2019-03-22T12:35:53.260Z,21.30
2019-03-22T12:38:26.398Z,21.40
2019-03-22T12:41:00.079Z,21.40
2019-03-22T12:43:34.242Z,21.20
2019-03-22T12:46:07.854Z,21.10
2019-03-22T12:48:40.979Z,21.10
2019-03-22T12:51:14.528Z,21.20
2019-03-22T12:53:47.486Z,21.20
2019-03-22T12:56:20.905Z,21.20
2019-03-22T12:58:53.853Z,21.20
2019-03-22T13:01:27.450Z,21.20
2019-03-22T13:04:00.710Z,21.20
2019-03-22T13:06:34.467Z,21.20
2019-03-22T13:09:08.390Z,21.20
2019-03-22T13:11:41.855Z,21.20
2019-03-22T13:14:14.864Z,21.20
2019-03-22T13:16:48.306Z,21.20
2019-03-22T13:19:21.233Z,21.20
2019-03-22T13:21:55.816Z,21.10
2019-03-22T13:24:29.225Z,21.10
2019-03-22T13:27:04.429Z,21.10
2019-03-22T13:29:37.515Z,21.10
2019-03-22T13:32:10.770Z,20.90
2019-03-22T13:34:43.768Z,20.70
2019-03-22T13:37:17.533Z,20.70
2019-03-22T13:39:51.446Z,20.80
2019-03-22T13:42:24.935Z,20.70
2019-03-22T13:44:57.957Z,20.70
2019-03-22T13:47:31.970Z,20.80
2019-03-22T13:50:07.898Z,20.80
2019-03-22T13:52:41.555Z,20.80
2019-03-22T13:55:14.750Z,20.80
2019-03-22T13:57:48.388Z,20.70
2019-03-22T14:00:21.486Z,20.70
2019-03-22T14:03:03.185Z,20.70
2019-03-22T14:05:29.782Z,20.70
2019-03-22T14:08:03.284Z,20.60
2019-03-22T14:10:37.291Z,20.60
2019-03-22T14:13:10.569Z,20.60
2019-03-22T14:15:43.681Z,20.60
2019-03-22T14:18:17.632Z,20.70
2019-03-22T14:20:50.570Z,20.70
2019-03-22T14:23:24.220Z,20.70
2019-03-22T14:25:57.336Z,20.60
2019-03-22T14:28:30.725Z,20.70
2019-03-22T14:31:03.836Z,20.40
2019-03-22T14:33:37.114Z,20.40
2019-03-22T14:36:11.294Z,20.40
2019-03-22T14:38:44.741Z,20.40
2019-03-22T14:41:17.725Z,20.40
2019-03-22T14:43:50.960Z,20.20
2019-03-22T14:46:24.390Z,20.20
2019-03-22T14:48:57.641Z,20.30
2019-03-22T14:51:30.607Z,20.30
2019-03-22T14:54:04.373Z,20.30
2019-03-22T14:56:37.285Z,20.40
2019-03-22T14:59:10.639Z,20.40
2019-03-22T15:01:43.684Z,20.30
2019-03-22T15:04:17.325Z,20.20
2019-03-22T15:06:50.346Z,20.20
2019-03-22T15:09:24.149Z,20.20
2019-03-22T15:11:57.335Z,20.20
2019-03-22T15:14:32.073Z,20.20
2019-03-22T15:17:24.923Z,20.20
2019-03-22T15:19:59.752Z,20.00
2019-03-22T15:22:46.479Z,20.00
2019-03-22T15:25:37.167Z,20.10
2019-03-22T15:28:11.387Z,20.10
2019-03-22T15:30:46.428Z,20.10
2019-03-22T15:33:35.811Z,20.00
2019-03-22T15:36:15.966Z,20.00
2019-03-22T15:39:06.741Z,20.00
2019-03-22T15:41:40.254Z,20.10
2019-03-22T15:44:14.671Z,20.10
2019-03-22T15:46:48.471Z,20.10
2019-03-22T15:49:21.881Z,20.10
2019-03-22T15:51:54.993Z,20.10
2019-03-22T15:54:28.103Z,20.10
2019-03-22T15:57:01.697Z,20.10
2019-03-22T15:59:34.907Z,20.10
2019-03-22T16:02:08.448Z,20.10
2019-03-22T16:04:41.358Z,20.10
2019-03-22T16:07:14.826Z,20.00
2019-03-22T16:09:47.841Z,20.00
2019-03-22T16:12:20.964Z,19.90
2019-03-22T16:14:54.219Z,20.00
2019-03-22T16:17:27.825Z,19.90
2019-03-22T16:20:01.222Z,19.90
2019-03-22T16:22:34.604Z,19.90
2019-03-22T16:25:08.488Z,19.90
2019-03-22T16:27:43.358Z,19.90
2019-03-22T16:30:17.442Z,19.90
2019-03-22T16:32:50.622Z,19.90
2019-03-22T16:35:23.545Z,19.90
2019-03-22T16:37:57.447Z,19.90
2019-03-22T16:40:30.465Z,19.90
2019-03-22T16:43:03.703Z,19.80
2019-03-22T16:45:37.838Z,19.80
2019-03-22T16:48:11.135Z,19.80
2019-03-22T16:50:44.650Z,19.80
2019-03-22T16:53:18.347Z,19.80
2019-03-22T16:55:51.259Z,19.80
2019-03-22T16:58:24.553Z,19.80
2019-03-22T17:00:57.482Z,19.80
2019-03-22T17:03:30.752Z,19.90
2019-03-22T17:06:03.935Z,19.90
2019-03-22T17:08:36.944Z,19.90
2019-03-22T17:11:09.793Z,19.80
2019-03-22T17:13:43.246Z,19.70
2019-03-22T17:16:16.339Z,19.70
2019-03-22T17:18:49.628Z,19.60
2019-03-22T17:21:22.585Z,19.60
2019-03-22T17:23:56.174Z,19.60
2019-03-22T17:26:29.058Z,19.60
2019-03-22T17:29:02.200Z,19.60
2019-03-22T17:31:35.239Z,19.40
2019-03-22T17:34:14.247Z,19.30
2019-03-22T17:36:42.559Z,19.40
2019-03-22T17:39:17.368Z,19.40
2019-03-22T17:41:49.895Z,19.40
2019-03-22T17:44:23.729Z,19.40
2019-03-22T17:46:57.148Z,19.40
2019-03-22T17:49:30.394Z,19.40
2019-03-22T17:52:03.416Z,19.40
2019-03-22T17:54:36.539Z,19.30
2019-03-22T17:57:18.401Z,19.30
2019-03-22T17:59:45.200Z,19.40
2019-03-22T18:02:18.165Z,19.20
2019-03-22T18:04:51.530Z,19.10
2019-03-22T18:07:24.545Z,19.10
2019-03-22T18:09:58.134Z,19.00
2019-03-22T18:12:30.933Z,18.90
2019-03-22T18:15:03.873Z,19.00
2019-03-22T18:17:36.717Z,19.10
2019-03-22T18:20:14.121Z,19.10
2019-03-22T18:22:47.379Z,19.20
2019-03-22T18:25:20.563Z,19.20
2019-03-22T18:27:53.657Z,19.20
2019-03-22T18:30:26.800Z,19.20
2019-03-22T18:32:59.865Z,19.20
2019-03-22T18:35:33.347Z,19.10
2019-03-22T18:38:07.643Z,19.00
2019-03-22T18:40:41.176Z,19.00
2019-03-22T18:43:14.352Z,19.00
2019-03-22T18:45:47.782Z,18.80
2019-03-22T18:48:20.745Z,18.80
2019-03-22T18:50:56.935Z,18.90
2019-03-22T18:53:28.338Z,18.90
2019-03-22T18:56:01.481Z,18.80
2019-03-22T18:58:34.457Z,18.90
2019-03-22T19:01:07.817Z,18.90
2019-03-22T19:03:40.622Z,18.90
2019-03-22T19:06:14.119Z,18.90
2019-03-22T19:08:47.109Z,18.90
2019-03-22T19:11:24.199Z,18.80
2019-03-22T19:13:56.982Z,18.80
2019-03-22T19:16:30.254Z,18.80
2019-03-22T19:19:03.258Z,18.80
2019-03-22T19:21:36.340Z,18.80
2019-03-22T19:24:09.290Z,18.70
2019-03-22T19:26:42.625Z,18.70
2019-03-22T19:29:16.119Z,18.80
2019-03-22T19:31:49.355Z,18.80
2019-03-22T19:34:22.380Z,18.70
2019-03-22T19:36:56.108Z,18.80
2019-03-22T19:39:29.113Z,18.70
2019-03-22T19:42:02.525Z,18.80
2019-03-22T19:44:35.518Z,18.80
2019-03-22T19:47:08.569Z,18.80
2019-03-22T19:49:41.483Z,18.80
2019-03-22T19:52:15.264Z,18.80
2019-03-22T19:54:48.451Z,18.80
2019-03-22T19:57:23.015Z,18.80
2019-03-22T19:59:56.923Z,18.80
2019-03-22T20:02:49.342Z,18.80
2019-03-22T20:05:33.090Z,18.70
2019-03-22T20:08:06.934Z,18.80
2019-03-22T20:10:39.961Z,18.80
2019-03-22T20:13:13.333Z,18.70
2019-03-22T20:15:46.357Z,18.60
2019-03-22T20:18:21.913Z,18.70
2019-03-22T20:20:53.574Z,18.70
2019-03-22T20:23:26.739Z,18.60
2019-03-22T20:26:00.231Z,18.70
2019-03-22T20:28:33.421Z,18.70
2019-03-22T20:31:06.643Z,18.70
2019-03-22T20:33:40.188Z,18.70
2019-03-22T20:36:13.327Z,18.70
2019-03-22T20:38:46.432Z,18.70
2019-03-22T20:41:19.186Z,18.90
2019-03-22T20:43:52.431Z,19.30
2019-03-22T20:46:25.591Z,19.70
2019-03-22T20:48:59.149Z,19.70
2019-03-22T20:51:32.184Z,19.70
2019-03-22T20:54:17.872Z,19.70
2019-03-22T20:56:51.323Z,20.20
2019-03-22T20:59:24.715Z,20.50
2019-03-22T21:01:57.870Z,20.60
2019-03-22T21:04:31.626Z,20.90
2019-03-22T21:07:05.075Z,20.90
2019-03-22T21:09:38.325Z,21.50
2019-03-22T21:12:11.362Z,21.60
2019-03-22T21:14:44.772Z,22.10
2019-03-22T21:17:17.692Z,22.20
2019-03-22T21:19:52.461Z,22.50
2019-03-22T21:22:25.853Z,22.60
2019-03-22T21:24:59.410Z,22.60
2019-03-22T21:27:32.488Z,22.90
2019-03-22T21:30:05.658Z,22.90
2019-03-22T21:32:45.282Z,23.20
2019-03-22T21:35:22.010Z,23.20
2019-03-22T21:37:47.179Z,23.40
2019-03-22T21:40:20.247Z,23.40
2019-03-22T21:42:53.273Z,23.40
2019-03-22T21:45:26.749Z,22.60
2019-03-22T21:47:59.524Z,22.30
2019-03-22T21:50:34.148Z,22.00
2019-03-22T21:53:07.585Z,22.30
2019-03-22T21:55:41.162Z,22.60
2019-03-22T21:58:14.518Z,22.80
2019-03-22T22:00:47.694Z,23.10
2019-03-22T22:03:20.806Z,23.00
2019-03-22T22:05:54.649Z,23.10
2019-03-22T22:08:27.740Z,23.30
2019-03-22T22:11:00.896Z,23.60
2019-03-22T22:13:33.838Z,23.90
2019-03-22T22:16:07.043Z,23.90
2019-03-22T22:18:39.757Z,24.00
2019-03-22T22:21:13.042Z,24.00
2019-03-22T22:23:45.929Z,23.20
2019-03-22T22:26:19.866Z,23.10
2019-03-22T22:28:52.845Z,22.80
2019-03-22T22:31:26.370Z,22.90
2019-03-22T22:33:59.384Z,22.80
2019-03-22T22:36:32.501Z,23.00
2019-03-22T22:39:06.518Z,23.10
2019-03-22T22:41:39.492Z,23.00
2019-03-22T22:44:12.337Z,22.90
2019-03-22T22:46:45.770Z,22.90
2019-03-22T22:49:18.841Z,22.90
2019-03-22T22:51:57.681Z,23.00
2019-03-22T22:54:30.185Z,23.00
2019-03-22T22:57:07.837Z,23.00
2019-03-22T22:59:40.866Z,23.00
2019-03-22T23:02:14.206Z,22.90
2019-03-22T23:04:47.327Z,23.00
2019-03-22T23:07:23.055Z,23.00
2019-03-22T23:09:56.049Z,23.10
2019-03-22T23:12:29.176Z,23.00
2019-03-22T23:15:02.245Z,23.10
2019-03-22T23:17:36.015Z,23.20
2019-03-22T23:20:09.423Z,23.20
2019-03-22T23:22:49.300Z,23.30
2019-03-22T23:25:22.381Z,23.40
2019-03-22T23:27:55.851Z,23.50
2019-03-22T23:30:28.984Z,23.60
2019-03-22T23:33:02.112Z,23.80
2019-03-22T23:35:35.251Z,23.90
2019-03-22T23:38:09.818Z,24.00
2019-03-22T23:40:43.249Z,24.00
2019-03-22T23:43:19.623Z,23.80
2019-03-22T23:45:53.104Z,23.90
2019-03-22T23:48:26.857Z,24.10
2019-03-22T23:51:00.057Z,24.10
2019-03-22T23:53:33.752Z,24.30
2019-03-22T23:56:07.335Z,24.30
2019-03-22T23:58:49.275Z,24.40
